sensor_id;sensor_type;location;lat;lon;timestamp;P1;durP1;ratioP1;P2;durP2;ratioP2
62994;SDS011;49086;52.300;4.850;2022-12-29T00:01:09;4.82;;;2.42;;
62994;SDS011;49086;52.300;4.850;2022-12-29T00:03:57;4.60;;;2.30;;
62994;SDS011;49086;52.300;4.850;2022-12-29T00:06:31;4.25;;;2.15;;
62994;SDS011;49086;52.300;4.850;2022-12-29T00:09:15;3.70;;;2.40;;
62994;SDS011;49086;52.300;4.850;2022-12-29T00:12:02;5.47;;;2.30;;
62994;SDS011;49086;52.300;4.850;2022-12-29T00:15:21;5.55;;;2.55;;
62994;SDS011;49086;52.300;4.850;2022-12-29T00:18:26;3.92;;;2.60;;
62994;SDS011;49086;52.300;4.850;2022-12-29T00:20:56;2.83;;;1.58;;
62994;SDS011;49086;52.300;4.850;2022-12-29T00:23:44;4.93;;;2.00;;
62994;SDS011;49086;52.300;4.850;2022-12-29T00:26:39;4.05;;;1.58;;
62994;SDS011;49086;52.300;4.850;2022-12-29T00:29:29;3.08;;;1.92;;
62994;SDS011;49086;52.300;4.850;2022-12-29T00:32:36;3.92;;;1.70;;
62994;SDS011;49086;52.300;4.850;2022-12-29T00:35:30;3.67;;;1.88;;
62994;SDS011;49086;52.300;4.850;2022-12-29T00:37:58;5.00;;;1.92;;
62994;SDS011;49086;52.300;4.850;2022-12-29T00:40:47;2.50;;;1.58;;
62994;SDS011;49086;52.300;4.850;2022-12-29T00:43:36;3.55;;;1.70;;
62994;SDS011;49086;52.300;4.850;2022-12-29T00:46:20;2.50;;;1.40;;
62994;SDS011;49086;52.300;4.850;2022-12-29T00:48:45;6.03;;;1.80;;
62994;SDS011;49086;52.300;4.850;2022-12-29T00:51:32;2.08;;;1.30;;
62994;SDS011;49086;52.300;4.850;2022-12-29T00:54:13;4.15;;;1.52;;
62994;SDS011;49086;52.300;4.850;2022-12-29T00:56:40;3.28;;;1.50;;
62994;SDS011;49086;52.300;4.850;2022-12-29T00:59:08;2.35;;;1.35;;
62994;SDS011;49086;52.300;4.850;2022-12-29T01:01:36;1.98;;;1.20;;
62994;SDS011;49086;52.300;4.850;2022-12-29T01:04:04;4.32;;;1.55;;
62994;SDS011;49086;52.300;4.850;2022-12-29T01:06:52;4.97;;;1.95;;
62994;SDS011;49086;52.300;4.850;2022-12-29T01:09:21;3.20;;;1.48;;
62994;SDS011;49086;52.300;4.850;2022-12-29T01:12:08;3.70;;;1.35;;
62994;SDS011;49086;52.300;4.850;2022-12-29T01:14:41;4.55;;;1.27;;
62994;SDS011;49086;52.300;4.850;2022-12-29T01:17:11;3.25;;;1.48;;
62994;SDS011;49086;52.300;4.850;2022-12-29T01:19:57;4.50;;;1.50;;
62994;SDS011;49086;52.300;4.850;2022-12-29T01:22:24;4.07;;;1.63;;
62994;SDS011;49086;52.300;4.850;2022-12-29T01:24:51;2.72;;;1.50;;
62994;SDS011;49086;52.300;4.850;2022-12-29T01:27:18;2.42;;;1.35;;
62994;SDS011;49086;52.300;4.850;2022-12-29T01:29:44;2.78;;;1.42;;
62994;SDS011;49086;52.300;4.850;2022-12-29T01:32:11;2.50;;;1.65;;
62994;SDS011;49086;52.300;4.850;2022-12-29T01:34:40;3.30;;;1.65;;
62994;SDS011;49086;52.300;4.850;2022-12-29T01:37:08;3.80;;;1.58;;
62994;SDS011;49086;52.300;4.850;2022-12-29T01:39:37;2.55;;;1.50;;
62994;SDS011;49086;52.300;4.850;2022-12-29T01:42:04;3.28;;;1.50;;
62994;SDS011;49086;52.300;4.850;2022-12-29T01:45:07;4.60;;;1.40;;
62994;SDS011;49086;52.300;4.850;2022-12-29T01:49:58;4.00;;;1.52;;
62994;SDS011;49086;52.300;4.850;2022-12-29T01:52:32;4.80;;;1.50;;
62994;SDS011;49086;52.300;4.850;2022-12-29T01:55:03;4.47;;;1.20;;
62994;SDS011;49086;52.300;4.850;2022-12-29T01:57:53;2.10;;;1.10;;
62994;SDS011;49086;52.300;4.850;2022-12-29T02:00:25;2.25;;;1.20;;
62994;SDS011;49086;52.300;4.850;2022-12-29T02:02:52;2.70;;;1.23;;
62994;SDS011;49086;52.300;4.850;2022-12-29T02:08:04;5.72;;;1.38;;
62994;SDS011;49086;52.300;4.850;2022-12-29T02:10:30;5.38;;;1.25;;
62994;SDS011;49086;52.300;4.850;2022-12-29T02:12:59;2.78;;;1.30;;
62994;SDS011;49086;52.300;4.850;2022-12-29T02:15:34;5.72;;;1.58;;
62994;SDS011;49086;52.300;4.850;2022-12-29T02:47:50;4.97;;;1.20;;
62994;SDS011;49086;52.300;4.850;2022-12-29T02:50:23;4.55;;;1.08;;
62994;SDS011;49086;52.300;4.850;2022-12-29T02:53:04;4.20;;;1.35;;
62994;SDS011;49086;52.300;4.850;2022-12-29T02:55:31;4.63;;;1.20;;
62994;SDS011;49086;52.300;4.850;2022-12-29T02:58:19;4.72;;;1.00;;
62994;SDS011;49086;52.300;4.850;2022-12-29T03:03:45;3.10;;;0.80;;
62994;SDS011;49086;52.300;4.850;2022-12-29T03:09:26;2.28;;;0.85;;
62994;SDS011;49086;52.300;4.850;2022-12-29T03:15:34;3.15;;;0.90;;
62994;SDS011;49086;52.300;4.850;2022-12-29T03:22:13;2.85;;;0.80;;
62994;SDS011;49086;52.300;4.850;2022-12-29T03:24:27;7.00;;;1.00;;
62994;SDS011;49086;52.300;4.850;2022-12-29T03:27:18;5.43;;;1.52;;
62994;SDS011;49086;52.300;4.850;2022-12-29T03:30:10;9.50;;;1.58;;
62994;SDS011;49086;52.300;4.850;2022-12-29T03:32:54;6.72;;;1.33;;
62994;SDS011;49086;52.300;4.850;2022-12-29T03:35:25;9.57;;;1.80;;
62994;SDS011;49086;52.300;4.850;2022-12-29T03:40:49;9.63;;;1.95;;
62994;SDS011;49086;52.300;4.850;2022-12-29T03:43:38;11.10;;;1.70;;
62994;SDS011;49086;52.300;4.850;2022-12-29T03:46:13;7.78;;;1.40;;
62994;SDS011;49086;52.300;4.850;2022-12-29T03:49:25;13.00;;;2.30;;
62994;SDS011;49086;52.300;4.850;2022-12-29T03:52:16;6.97;;;1.67;;
62994;SDS011;49086;52.300;4.850;2022-12-29T03:54:45;9.82;;;1.85;;
62994;SDS011;49086;52.300;4.850;2022-12-29T03:57:33;6.68;;;2.33;;
62994;SDS011;49086;52.300;4.850;2022-12-29T04:00:03;6.38;;;1.65;;
62994;SDS011;49086;52.300;4.850;2022-12-29T04:02:32;6.00;;;1.08;;
62994;SDS011;49086;52.300;4.850;2022-12-29T04:05:32;10.25;;;1.52;;
62994;SDS011;49086;52.300;4.850;2022-12-29T04:08:17;10.05;;;1.48;;
62994;SDS011;49086;52.300;4.850;2022-12-29T04:10:47;7.45;;;1.48;;
62994;SDS011;49086;52.300;4.850;2022-12-29T04:16:10;13.32;;;1.58;;
62994;SDS011;49086;52.300;4.850;2022-12-29T04:18:39;7.75;;;1.27;;
62994;SDS011;49086;52.300;4.850;2022-12-29T04:21:10;7.70;;;1.35;;
62994;SDS011;49086;52.300;4.850;2022-12-29T04:23:56;5.43;;;1.63;;
62994;SDS011;49086;52.300;4.850;2022-12-29T04:26:44;8.88;;;2.17;;
62994;SDS011;49086;52.300;4.850;2022-12-29T04:29:11;8.48;;;1.35;;
62994;SDS011;49086;52.300;4.850;2022-12-29T04:31:36;11.05;;;1.70;;
62994;SDS011;49086;52.300;4.850;2022-12-29T04:34:06;8.33;;;1.33;;
62994;SDS011;49086;52.300;4.850;2022-12-29T04:36:35;9.93;;;1.65;;
62994;SDS011;49086;52.300;4.850;2022-12-29T04:39:11;10.27;;;1.83;;
62994;SDS011;49086;52.300;4.850;2022-12-29T04:41:52;12.05;;;1.92;;
62994;SDS011;49086;52.300;4.850;2022-12-29T04:44:40;8.98;;;1.63;;
62994;SDS011;49086;52.300;4.850;2022-12-29T04:47:05;12.75;;;1.90;;
62994;SDS011;49086;52.300;4.850;2022-12-29T04:49:33;8.57;;;1.70;;
62994;SDS011;49086;52.300;4.850;2022-12-29T04:52:07;13.30;;;1.42;;
62994;SDS011;49086;52.300;4.850;2022-12-29T04:54:52;11.13;;;2.05;;
62994;SDS011;49086;52.300;4.850;2022-12-29T04:57:20;10.13;;;2.80;;
62994;SDS011;49086;52.300;4.850;2022-12-29T05:00:01;4.43;;;1.35;;
62994;SDS011;49086;52.300;4.850;2022-12-29T05:03:01;6.60;;;1.52;;
62994;SDS011;49086;52.300;4.850;2022-12-29T05:05:30;8.32;;;2.15;;
62994;SDS011;49086;52.300;4.850;2022-12-29T05:08:18;7.35;;;1.77;;
62994;SDS011;49086;52.300;4.850;2022-12-29T05:11:03;8.27;;;1.55;;
62994;SDS011;49086;52.300;4.850;2022-12-29T05:16:38;13.48;;;2.42;;
62994;SDS011;49086;52.300;4.850;2022-12-29T05:19:07;5.00;;;1.15;;
62994;SDS011;49086;52.300;4.850;2022-12-29T05:21:40;8.48;;;1.60;;
62994;SDS011;49086;52.300;4.850;2022-12-29T05:24:31;8.68;;;1.70;;
62994;SDS011;49086;52.300;4.850;2022-12-29T05:27:18;9.32;;;2.00;;
62994;SDS011;49086;52.300;4.850;2022-12-29T05:29:49;9.68;;;1.58;;
62994;SDS011;49086;52.300;4.850;2022-12-29T05:32:19;9.88;;;2.10;;
62994;SDS011;49086;52.300;4.850;2022-12-29T05:35:12;5.35;;;1.30;;
62994;SDS011;49086;52.300;4.850;2022-12-29T05:38:00;8.00;;;1.98;;
62994;SDS011;49086;52.300;4.850;2022-12-29T05:40:52;12.18;;;1.38;;
62994;SDS011;49086;52.300;4.850;2022-12-29T05:43:27;7.78;;;1.60;;
62994;SDS011;49086;52.300;4.850;2022-12-29T05:46:17;13.32;;;2.00;;
62994;SDS011;49086;52.300;4.850;2022-12-29T05:48:48;9.18;;;1.70;;
62994;SDS011;49086;52.300;4.850;2022-12-29T05:51:14;6.78;;;1.40;;
62994;SDS011;49086;52.300;4.850;2022-12-29T05:53:40;8.13;;;1.40;;
62994;SDS011;49086;52.300;4.850;2022-12-29T05:56:15;7.88;;;2.33;;
62994;SDS011;49086;52.300;4.850;2022-12-29T05:58:56;14.55;;;2.55;;
62994;SDS011;49086;52.300;4.850;2022-12-29T06:01:21;15.47;;;2.40;;
62994;SDS011;49086;52.300;4.850;2022-12-29T06:03:47;8.63;;;1.55;;
62994;SDS011;49086;52.300;4.850;2022-12-29T06:06:38;7.93;;;2.28;;
62994;SDS011;49086;52.300;4.850;2022-12-29T06:09:20;9.55;;;1.73;;
62994;SDS011;49086;52.300;4.850;2022-12-29T06:11:56;13.88;;;1.63;;
62994;SDS011;49086;52.300;4.850;2022-12-29T06:14:25;4.85;;;1.52;;
62994;SDS011;49086;52.300;4.850;2022-12-29T06:17:00;7.93;;;1.70;;
62994;SDS011;49086;52.300;4.850;2022-12-29T06:19:32;8.73;;;1.92;;
62994;SDS011;49086;52.300;4.850;2022-12-29T06:22:00;8.63;;;1.88;;
62994;SDS011;49086;52.300;4.850;2022-12-29T06:24:34;12.10;;;2.15;;
62994;SDS011;49086;52.300;4.850;2022-12-29T06:27:04;8.32;;;1.85;;
62994;SDS011;49086;52.300;4.850;2022-12-29T06:29:31;9.00;;;1.77;;
62994;SDS011;49086;52.300;4.850;2022-12-29T06:31:56;12.48;;;1.73;;
62994;SDS011;49086;52.300;4.850;2022-12-29T06:34:27;6.32;;;2.05;;
62994;SDS011;49086;52.300;4.850;2022-12-29T06:37:25;7.85;;;1.70;;
62994;SDS011;49086;52.300;4.850;2022-12-29T06:40:11;15.80;;;2.03;;
62994;SDS011;49086;52.300;4.850;2022-12-29T06:42:40;9.60;;;1.88;;
62994;SDS011;49086;52.300;4.850;2022-12-29T06:45:06;11.32;;;1.80;;
62994;SDS011;49086;52.300;4.850;2022-12-29T06:47:57;14.15;;;2.22;;
62994;SDS011;49086;52.300;4.850;2022-12-29T06:50:24;15.18;;;1.92;;
62994;SDS011;49086;52.300;4.850;2022-12-29T06:52:51;14.05;;;2.20;;
62994;SDS011;49086;52.300;4.850;2022-12-29T06:55:16;14.68;;;2.22;;
62994;SDS011;49086;52.300;4.850;2022-12-29T06:57:48;13.05;;;2.25;;
62994;SDS011;49086;52.300;4.850;2022-12-29T07:00:13;11.95;;;2.38;;
62994;SDS011;49086;52.300;4.850;2022-12-29T07:03:03;14.15;;;2.30;;
62994;SDS011;49086;52.300;4.850;2022-12-29T07:05:44;16.55;;;3.05;;
62994;SDS011;49086;52.300;4.850;2022-12-29T07:08:13;7.82;;;2.05;;
62994;SDS011;49086;52.300;4.850;2022-12-29T07:10:40;19.10;;;3.22;;
62994;SDS011;49086;52.300;4.850;2022-12-29T07:13:09;22.85;;;4.00;;
62994;SDS011;49086;52.300;4.850;2022-12-29T07:15:36;18.35;;;2.13;;
62994;SDS011;49086;52.300;4.850;2022-12-29T07:18:23;14.55;;;2.58;;
62994;SDS011;49086;52.300;4.850;2022-12-29T07:20:49;15.95;;;2.42;;
62994;SDS011;49086;52.300;4.850;2022-12-29T07:23:20;16.40;;;2.20;;
62994;SDS011;49086;52.300;4.850;2022-12-29T07:25:49;17.13;;;2.88;;
62994;SDS011;49086;52.300;4.850;2022-12-29T07:28:21;14.45;;;3.08;;
62994;SDS011;49086;52.300;4.850;2022-12-29T07:30:46;15.48;;;2.65;;
62994;SDS011;49086;52.300;4.850;2022-12-29T07:33:31;11.57;;;2.95;;
62994;SDS011;49086;52.300;4.850;2022-12-29T07:35:59;12.88;;;2.40;;
62994;SDS011;49086;52.300;4.850;2022-12-29T07:38:26;12.95;;;1.77;;
62994;SDS011;49086;52.300;4.850;2022-12-29T07:40:57;19.02;;;3.60;;
62994;SDS011;49086;52.300;4.850;2022-12-29T07:43:23;13.55;;;2.78;;
62994;SDS011;49086;52.300;4.850;2022-12-29T07:45:50;12.02;;;2.08;;
62994;SDS011;49086;52.300;4.850;2022-12-29T07:48:17;8.45;;;1.55;;
62994;SDS011;49086;52.300;4.850;2022-12-29T07:50:43;16.00;;;1.70;;
62994;SDS011;49086;52.300;4.850;2022-12-29T07:53:09;14.75;;;2.85;;
62994;SDS011;49086;52.300;4.850;2022-12-29T07:55:35;17.77;;;2.67;;
62994;SDS011;49086;52.300;4.850;2022-12-29T07:58:02;12.00;;;2.53;;
62994;SDS011;49086;52.300;4.850;2022-12-29T08:00:29;9.48;;;2.00;;
62994;SDS011;49086;52.300;4.850;2022-12-29T08:02:57;10.18;;;2.30;;
62994;SDS011;49086;52.300;4.850;2022-12-29T08:05:23;18.88;;;2.13;;
62994;SDS011;49086;52.300;4.850;2022-12-29T08:08:09;11.50;;;1.80;;
62994;SDS011;49086;52.300;4.850;2022-12-29T08:10:46;9.60;;;2.13;;
62994;SDS011;49086;52.300;4.850;2022-12-29T08:13:13;18.05;;;2.17;;
62994;SDS011;49086;52.300;4.850;2022-12-29T08:15:41;11.05;;;2.28;;
62994;SDS011;49086;52.300;4.850;2022-12-29T08:18:06;8.93;;;1.75;;
62994;SDS011;49086;52.300;4.850;2022-12-29T08:20:32;11.27;;;1.97;;
62994;SDS011;49086;52.300;4.850;2022-12-29T08:22:58;14.15;;;2.80;;
62994;SDS011;49086;52.300;4.850;2022-12-29T08:25:24;13.60;;;2.63;;
62994;SDS011;49086;52.300;4.850;2022-12-29T08:27:52;12.68;;;2.15;;
62994;SDS011;49086;52.300;4.850;2022-12-29T08:30:19;12.48;;;2.20;;
62994;SDS011;49086;52.300;4.850;2022-12-29T08:32:46;10.02;;;2.58;;
62994;SDS011;49086;52.300;4.850;2022-12-29T08:35:11;18.40;;;2.63;;
62994;SDS011;49086;52.300;4.850;2022-12-29T08:37:39;11.55;;;1.77;;
62994;SDS011;49086;52.300;4.850;2022-12-29T08:40:04;11.85;;;2.38;;
62994;SDS011;49086;52.300;4.850;2022-12-29T08:42:31;11.85;;;3.10;;
62994;SDS011;49086;52.300;4.850;2022-12-29T08:44:58;9.32;;;2.30;;
62994;SDS011;49086;52.300;4.850;2022-12-29T08:47:23;12.85;;;2.15;;
62994;SDS011;49086;52.300;4.850;2022-12-29T08:49:50;12.73;;;2.38;;
62994;SDS011;49086;52.300;4.850;2022-12-29T08:52:15;14.13;;;2.35;;
62994;SDS011;49086;52.300;4.850;2022-12-29T08:54:45;16.30;;;2.72;;
62994;SDS011;49086;52.300;4.850;2022-12-29T08:57:10;15.65;;;2.28;;
62994;SDS011;49086;52.300;4.850;2022-12-29T08:59:35;12.02;;;2.72;;
62994;SDS011;49086;52.300;4.850;2022-12-29T09:02:02;6.88;;;1.83;;
62994;SDS011;49086;52.300;4.850;2022-12-29T09:04:33;12.10;;;2.10;;
62994;SDS011;49086;52.300;4.850;2022-12-29T09:07:02;13.98;;;2.88;;
62994;SDS011;49086;52.300;4.850;2022-12-29T09:09:27;12.77;;;2.00;;
62994;SDS011;49086;52.300;4.850;2022-12-29T09:11:56;17.48;;;3.08;;
62994;SDS011;49086;52.300;4.850;2022-12-29T09:14:47;7.10;;;2.05;;
62994;SDS011;49086;52.300;4.850;2022-12-29T09:17:13;10.55;;;2.20;;
62994;SDS011;49086;52.300;4.850;2022-12-29T09:20:06;6.82;;;2.08;;
62994;SDS011;49086;52.300;4.850;2022-12-29T09:22:35;15.55;;;2.13;;
62994;SDS011;49086;52.300;4.850;2022-12-29T09:25:00;9.27;;;2.50;;
62994;SDS011;49086;52.300;4.850;2022-12-29T09:27:26;13.35;;;2.47;;
62994;SDS011;49086;52.300;4.850;2022-12-29T09:30:08;13.07;;;2.65;;
62994;SDS011;49086;52.300;4.850;2022-12-29T09:32:49;10.25;;;2.50;;
62994;SDS011;49086;52.300;4.850;2022-12-29T09:35:23;13.40;;;2.30;;
62994;SDS011;49086;52.300;4.850;2022-12-29T09:38:14;8.77;;;2.58;;
62994;SDS011;49086;52.300;4.850;2022-12-29T09:40:43;7.33;;;1.67;;
62994;SDS011;49086;52.300;4.850;2022-12-29T09:46:42;15.55;;;2.88;;
62994;SDS011;49086;52.300;4.850;2022-12-29T09:52:18;13.95;;;2.65;;
62994;SDS011;49086;52.300;4.850;2022-12-29T09:55:13;14.43;;;3.20;;
62994;SDS011;49086;52.300;4.850;2022-12-29T09:57:59;12.48;;;2.10;;
62994;SDS011;49086;52.300;4.850;2022-12-29T10:04:02;12.60;;;2.00;;
62994;SDS011;49086;52.300;4.850;2022-12-29T10:06:54;10.45;;;2.05;;
62994;SDS011;49086;52.300;4.850;2022-12-29T10:09:32;16.00;;;2.50;;
62994;SDS011;49086;52.300;4.850;2022-12-29T10:12:11;13.95;;;2.20;;
62994;SDS011;49086;52.300;4.850;2022-12-29T10:25:41;12.90;;;3.17;;
62994;SDS011;49086;52.300;4.850;2022-12-29T10:28:42;17.90;;;3.03;;
62994;SDS011;49086;52.300;4.850;2022-12-29T10:34:14;22.95;;;2.83;;
62994;SDS011;49086;52.300;4.850;2022-12-29T10:36:51;13.82;;;2.75;;
62994;SDS011;49086;52.300;4.850;2022-12-29T10:45:16;19.10;;;2.78;;
62994;SDS011;49086;52.300;4.850;2022-12-29T10:47:58;20.60;;;3.25;;
62994;SDS011;49086;52.300;4.850;2022-12-29T10:50:29;18.98;;;2.85;;
62994;SDS011;49086;52.300;4.850;2022-12-29T10:53:24;15.68;;;3.10;;
62994;SDS011;49086;52.300;4.850;2022-12-29T10:56:01;21.38;;;3.45;;
62994;SDS011;49086;52.300;4.850;2022-12-29T10:58:48;12.63;;;2.17;;
62994;SDS011;49086;52.300;4.850;2022-12-29T11:01:14;11.38;;;2.22;;
62994;SDS011;49086;52.300;4.850;2022-12-29T11:04:04;20.35;;;2.83;;
62994;SDS011;49086;52.300;4.850;2022-12-29T11:06:32;16.90;;;2.42;;
62994;SDS011;49086;52.300;4.850;2022-12-29T11:09:01;21.77;;;2.85;;
62994;SDS011;49086;52.300;4.850;2022-12-29T11:11:34;9.93;;;2.03;;
62994;SDS011;49086;52.300;4.850;2022-12-29T11:14:28;12.52;;;3.30;;
62994;SDS011;49086;52.300;4.850;2022-12-29T11:17:05;15.83;;;2.40;;
62994;SDS011;49086;52.300;4.850;2022-12-29T11:19:34;12.00;;;2.20;;
62994;SDS011;49086;52.300;4.850;2022-12-29T11:22:27;11.55;;;2.67;;
62994;SDS011;49086;52.300;4.850;2022-12-29T11:25:09;17.60;;;2.50;;
62994;SDS011;49086;52.300;4.850;2022-12-29T11:30:53;12.75;;;2.67;;
62994;SDS011;49086;52.300;4.850;2022-12-29T11:33:30;13.18;;;2.33;;
62994;SDS011;49086;52.300;4.850;2022-12-29T11:36:15;13.38;;;2.10;;
62994;SDS011;49086;52.300;4.850;2022-12-29T11:38:56;12.80;;;1.80;;
62994;SDS011;49086;52.300;4.850;2022-12-29T11:41:30;8.85;;;1.83;;
62994;SDS011;49086;52.300;4.850;2022-12-29T11:44:17;9.95;;;2.67;;
62994;SDS011;49086;52.300;4.850;2022-12-29T11:46:48;14.13;;;1.95;;
62994;SDS011;49086;52.300;4.850;2022-12-29T11:52:03;7.63;;;1.65;;
62994;SDS011;49086;52.300;4.850;2022-12-29T11:54:39;14.18;;;2.63;;
62994;SDS011;49086;52.300;4.850;2022-12-29T11:57:27;15.82;;;3.15;;
62994;SDS011;49086;52.300;4.850;2022-12-29T12:00:37;15.15;;;2.40;;
62994;SDS011;49086;52.300;4.850;2022-12-29T12:03:07;11.52;;;1.85;;
62994;SDS011;49086;52.300;4.850;2022-12-29T12:16:58;6.30;;;1.88;;
62994;SDS011;49086;52.300;4.850;2022-12-29T12:22:21;9.50;;;1.80;;
62994;SDS011;49086;52.300;4.850;2022-12-29T12:24:53;11.52;;;1.80;;
62994;SDS011;49086;52.300;4.850;2022-12-29T12:30:14;7.15;;;1.23;;
62994;SDS011;49086;52.300;4.850;2022-12-29T12:38:32;7.70;;;1.45;;
62994;SDS011;49086;52.300;4.850;2022-12-29T12:41:16;5.75;;;1.73;;
62994;SDS011;49086;52.300;4.850;2022-12-29T12:43:51;9.40;;;1.67;;
62994;SDS011;49086;52.300;4.850;2022-12-29T12:51:41;4.57;;;1.33;;
62994;SDS011;49086;52.300;4.850;2022-12-29T12:57:28;5.97;;;1.13;;
62994;SDS011;49086;52.300;4.850;2022-12-29T13:05:32;6.00;;;1.92;;
62994;SDS011;49086;52.300;4.850;2022-12-29T13:10:42;13.80;;;2.08;;
62994;SDS011;49086;52.300;4.850;2022-12-29T13:13:47;7.57;;;1.73;;
62994;SDS011;49086;52.300;4.850;2022-12-29T13:16:40;12.52;;;2.28;;
62994;SDS011;49086;52.300;4.850;2022-12-29T13:19:21;13.05;;;1.85;;
62994;SDS011;49086;52.300;4.850;2022-12-29T13:24:17;11.93;;;1.58;;
62994;SDS011;49086;52.300;4.850;2022-12-29T13:26:53;14.10;;;1.95;;
62994;SDS011;49086;52.300;4.850;2022-12-29T13:38:24;8.95;;;1.67;;
62994;SDS011;49086;52.300;4.850;2022-12-29T13:41:08;14.95;;;2.60;;
62994;SDS011;49086;52.300;4.850;2022-12-29T13:43:42;10.93;;;1.63;;
62994;SDS011;49086;52.300;4.850;2022-12-29T13:46:58;9.52;;;1.75;;
62994;SDS011;49086;52.300;4.850;2022-12-29T13:54:55;8.52;;;1.73;;
62994;SDS011;49086;52.300;4.850;2022-12-29T13:57:44;14.10;;;2.05;;
62994;SDS011;49086;52.300;4.850;2022-12-29T14:00:23;13.75;;;1.80;;
62994;SDS011;49086;52.300;4.850;2022-12-29T14:05:28;8.43;;;1.60;;
62994;SDS011;49086;52.300;4.850;2022-12-29T14:07:58;13.35;;;1.85;;
62994;SDS011;49086;52.300;4.850;2022-12-29T14:13:18;10.98;;;2.00;;
62994;SDS011;49086;52.300;4.850;2022-12-29T14:15:54;12.32;;;2.53;;
62994;SDS011;49086;52.300;4.850;2022-12-29T14:18:28;13.43;;;1.95;;
62994;SDS011;49086;52.300;4.850;2022-12-29T14:21:17;10.75;;;2.45;;
62994;SDS011;49086;52.300;4.850;2022-12-29T14:23:48;13.65;;;2.33;;
62994;SDS011;49086;52.300;4.850;2022-12-29T14:26:18;16.17;;;2.30;;
62994;SDS011;49086;52.300;4.850;2022-12-29T14:29:15;14.98;;;3.60;;
62994;SDS011;49086;52.300;4.850;2022-12-29T14:31:41;9.95;;;2.05;;
62994;SDS011;49086;52.300;4.850;2022-12-29T14:42:04;5.03;;;1.60;;
62994;SDS011;49086;52.300;4.850;2022-12-29T14:44:32;8.23;;;1.63;;
62994;SDS011;49086;52.300;4.850;2022-12-29T14:46:59;8.70;;;1.85;;
62994;SDS011;49086;52.300;4.850;2022-12-29T14:49:31;8.57;;;1.60;;
62994;SDS011;49086;52.300;4.850;2022-12-29T14:54:44;12.02;;;2.17;;
62994;SDS011;49086;52.300;4.850;2022-12-29T14:57:17;10.77;;;1.80;;
62994;SDS011;49086;52.300;4.850;2022-12-29T14:59:46;6.30;;;1.70;;
62994;SDS011;49086;52.300;4.850;2022-12-29T15:02:16;11.68;;;2.80;;
62994;SDS011;49086;52.300;4.850;2022-12-29T15:04:43;9.70;;;2.63;;
62994;SDS011;49086;52.300;4.850;2022-12-29T15:07:09;9.93;;;1.85;;
62994;SDS011;49086;52.300;4.850;2022-12-29T15:09:41;11.10;;;2.67;;
62994;SDS011;49086;52.300;4.850;2022-12-29T15:14:58;7.53;;;1.55;;
62994;SDS011;49086;52.300;4.850;2022-12-29T15:17:30;14.23;;;2.40;;
62994;SDS011;49086;52.300;4.850;2022-12-29T15:19:57;11.52;;;1.90;;
62994;SDS011;49086;52.300;4.850;2022-12-29T15:22:23;10.57;;;2.03;;
62994;SDS011;49086;52.300;4.850;2022-12-29T15:24:51;5.90;;;1.73;;
62994;SDS011;49086;52.300;4.850;2022-12-29T15:27:21;12.65;;;2.10;;
62994;SDS011;49086;52.300;4.850;2022-12-29T15:29:47;12.07;;;2.17;;
62994;SDS011;49086;52.300;4.850;2022-12-29T15:32:24;7.13;;;2.28;;
62994;SDS011;49086;52.300;4.850;2022-12-29T15:34:57;12.20;;;2.38;;
62994;SDS011;49086;52.300;4.850;2022-12-29T15:37:34;16.75;;;2.78;;
62994;SDS011;49086;52.300;4.850;2022-12-29T15:40:02;11.30;;;1.80;;
62994;SDS011;49086;52.300;4.850;2022-12-29T15:42:52;8.32;;;2.03;;
62994;SDS011;49086;52.300;4.850;2022-12-29T15:45:28;13.35;;;2.20;;
62994;SDS011;49086;52.300;4.850;2022-12-29T15:47:55;11.77;;;1.85;;
62994;SDS011;49086;52.300;4.850;2022-12-29T15:50:24;12.30;;;1.95;;
62994;SDS011;49086;52.300;4.850;2022-12-29T15:52:54;9.13;;;2.40;;
62994;SDS011;49086;52.300;4.850;2022-12-29T15:55:21;9.20;;;1.60;;
62994;SDS011;49086;52.300;4.850;2022-12-29T15:57:55;12.80;;;1.80;;
62994;SDS011;49086;52.300;4.850;2022-12-29T16:00:28;19.92;;;2.47;;
62994;SDS011;49086;52.300;4.850;2022-12-29T16:03:03;13.38;;;1.98;;
62994;SDS011;49086;52.300;4.850;2022-12-29T16:05:33;12.13;;;2.30;;
62994;SDS011;49086;52.300;4.850;2022-12-29T16:07:59;17.20;;;2.13;;
62994;SDS011;49086;52.300;4.850;2022-12-29T16:10:46;10.02;;;1.45;;
62994;SDS011;49086;52.300;4.850;2022-12-29T16:13:20;15.45;;;1.98;;
62994;SDS011;49086;52.300;4.850;2022-12-29T16:15:49;12.23;;;1.70;;
62994;SDS011;49086;52.300;4.850;2022-12-29T16:18:26;11.40;;;1.88;;
62994;SDS011;49086;52.300;4.850;2022-12-29T16:21:15;11.80;;;2.15;;
62994;SDS011;49086;52.300;4.850;2022-12-29T16:23:43;11.93;;;1.88;;
62994;SDS011;49086;52.300;4.850;2022-12-29T16:26:14;11.23;;;2.40;;
62994;SDS011;49086;52.300;4.850;2022-12-29T16:28:42;14.32;;;2.53;;
62994;SDS011;49086;52.300;4.850;2022-12-29T16:31:17;13.68;;;2.13;;
62994;SDS011;49086;52.300;4.850;2022-12-29T16:33:46;13.80;;;2.75;;
62994;SDS011;49086;52.300;4.850;2022-12-29T16:36:32;15.23;;;2.28;;
62994;SDS011;49086;52.300;4.850;2022-12-29T16:41:41;11.60;;;2.38;;
62994;SDS011;49086;52.300;4.850;2022-12-29T16:44:16;11.45;;;2.13;;
62994;SDS011;49086;52.300;4.850;2022-12-29T16:49:54;11.07;;;2.80;;
62994;SDS011;49086;52.300;4.850;2022-12-29T16:52:36;15.52;;;3.33;;
62994;SDS011;49086;52.300;4.850;2022-12-29T16:55:04;25.08;;;2.78;;
62994;SDS011;49086;52.300;4.850;2022-12-29T16:57:31;16.05;;;2.42;;
62994;SDS011;49086;52.300;4.850;2022-12-29T16:59:59;11.35;;;1.95;;
62994;SDS011;49086;52.300;4.850;2022-12-29T17:02:26;6.15;;;1.60;;
62994;SDS011;49086;52.300;4.850;2022-12-29T17:04:55;19.17;;;2.70;;
62994;SDS011;49086;52.300;4.850;2022-12-29T17:07:27;9.75;;;2.63;;
62994;SDS011;49086;52.300;4.850;2022-12-29T17:09:52;11.27;;;2.08;;
62994;SDS011;49086;52.300;4.850;2022-12-29T17:12:29;9.50;;;1.80;;
62994;SDS011;49086;52.300;4.850;2022-12-29T17:14:58;10.75;;;2.13;;
62994;SDS011;49086;52.300;4.850;2022-12-29T17:17:35;11.13;;;2.10;;
62994;SDS011;49086;52.300;4.850;2022-12-29T17:20:25;9.38;;;1.95;;
62994;SDS011;49086;52.300;4.850;2022-12-29T17:22:53;14.13;;;2.20;;
62994;SDS011;49086;52.300;4.850;2022-12-29T17:25:30;9.82;;;2.17;;
62994;SDS011;49086;52.300;4.850;2022-12-29T17:28:12;13.57;;;2.17;;
62994;SDS011;49086;52.300;4.850;2022-12-29T17:30:42;13.75;;;2.25;;
62994;SDS011;49086;52.300;4.850;2022-12-29T17:33:10;13.27;;;2.28;;
62994;SDS011;49086;52.300;4.850;2022-12-29T17:35:38;14.65;;;2.63;;
62994;SDS011;49086;52.300;4.850;2022-12-29T17:38:38;12.73;;;2.85;;
62994;SDS011;49086;52.300;4.850;2022-12-29T17:41:11;11.10;;;2.35;;
62994;SDS011;49086;52.300;4.850;2022-12-29T17:43:41;8.77;;;1.90;;
62994;SDS011;49086;52.300;4.850;2022-12-29T17:46:15;20.05;;;2.92;;
62994;SDS011;49086;52.300;4.850;2022-12-29T17:48:45;12.65;;;1.83;;
62994;SDS011;49086;52.300;4.850;2022-12-29T17:51:15;10.32;;;2.38;;
62994;SDS011;49086;52.300;4.850;2022-12-29T17:53:41;11.02;;;2.58;;
62994;SDS011;49086;52.300;4.850;2022-12-29T17:56:08;10.60;;;2.60;;
62994;SDS011;49086;52.300;4.850;2022-12-29T17:58:42;8.20;;;1.88;;
62994;SDS011;49086;52.300;4.850;2022-12-29T18:01:10;12.90;;;4.15;;
62994;SDS011;49086;52.300;4.850;2022-12-29T18:03:36;7.63;;;1.73;;
62994;SDS011;49086;52.300;4.850;2022-12-29T18:06:04;9.43;;;2.58;;
62994;SDS011;49086;52.300;4.850;2022-12-29T18:08:53;14.02;;;2.35;;
62994;SDS011;49086;52.300;4.850;2022-12-29T18:11:25;11.32;;;2.20;;
62994;SDS011;49086;52.300;4.850;2022-12-29T18:13:56;10.98;;;2.35;;
62994;SDS011;49086;52.300;4.850;2022-12-29T18:16:23;9.15;;;2.40;;
62994;SDS011;49086;52.300;4.850;2022-12-29T18:19:23;13.77;;;2.25;;
62994;SDS011;49086;52.300;4.850;2022-12-29T18:22:08;13.82;;;2.08;;